Time;durP1;ratioP1;P1;durP2;ratioP2;P2;SDS_P1;SDS_P2;PMS_P1;PMS_P2;Temp;Humidity;BMP_temperature;BMP_pressure;BME280_temperature;BME280_humidity;BME280_pressure;Samples;Min_cycle;Max_cycle;Signal;HPM_P1;HPM_P2
2024/04/08 00:00:29;;;;;;;1999.90;999.90;;;17.00;99.90;;;;;;5034344;28;20037;-70
2024/04/08 00:02:55;;;;;;;1999.90;999.90;;;17.00;99.90;;;;;;5035246;28;20033;-66
2024/04/08 00:05:21;;;;;;;1999.90;999.90;;;17.00;99.90;;;;;;5035001;28;20025;-69
2024/04/08 00:07:48;;;;;;;1999.90;999.90;;;16.90;99.90;;;;;;5035041;28;20033;-66
2024/04/08 00:10:14;;;;;;;1999.90;999.90;;;16.90;99.90;;;;;;5035127;28;20040;-69
2024/04/08 00:12:41;;;;;;;1999.90;999.90;;;16.90;99.90;;;;;;5034723;28;20036;-70
2024/04/08 00:15:07;;;;;;;1999.90;999.90;;;16.90;99.90;;;;;;5034911;28;20124;-66
2024/04/08 00:17:33;;;;;;;1999.90;999.90;;;17.00;99.90;;;;;;5034872;28;20026;-66
2024/04/08 00:19:59;;;;;;;1999.90;999.90;;;17.00;99.90;;;;;;5034677;28;20095;-66
2024/04/08 00:22:24;;;;;;;1999.90;999.90;;;17.10;99.90;;;;;;5033073;28;20096;-66
2024/04/08 00:24:53;;;;;;;1999.90;999.90;;;17.10;99.90;;;;;;5034426;28;20021;-70
2024/04/08 00:27:19;;;;;;;1999.90;999.90;;;17.10;99.90;;;;;;5034635;28;20029;-70
2024/04/08 00:29:45;;;;;;;1999.90;999.90;;;17.20;99.90;;;;;;5034474;28;20089;-66
2024/04/08 00:32:11;;;;;;;1999.90;999.90;;;17.20;99.90;;;;;;5034621;28;20029;-66
2024/04/08 00:34:37;;;;;;;1999.90;999.90;;;17.20;99.90;;;;;;5034249;28;20095;-66
2024/04/08 00:37:02;;;;;;;1999.90;999.90;;;17.20;99.90;;;;;;5034427;28;20030;-66
2024/04/08 00:39:28;;;;;;;1999.90;999.90;;;17.20;99.90;;;;;;5034270;28;20061;-66
2024/04/08 00:41:53;;;;;;;1999.90;999.90;;;17.20;99.90;;;;;;5034293;28;20065;-66
2024/04/08 00:44:20;;;;;;;1999.90;999.90;;;17.30;99.90;;;;;;5034800;28;20022;-66
2024/04/08 00:46:46;;;;;;;1999.90;999.90;;;17.30;99.90;;;;;;5034176;28;20390;-66
2024/04/08 00:49:13;;;;;;;1999.90;999.90;;;17.40;99.90;;;;;;5034283;28;20499;-66
2024/04/08 00:51:39;;;;;;;1999.90;999.90;;;17.40;99.90;;;;;;5034163;28;20558;-66
2024/04/08 00:54:05;;;;;;;1999.90;999.90;;;17.40;99.90;;;;;;5033953;28;20025;-70
2024/04/08 00:56:31;;;;;;;1999.90;999.90;;;17.40;99.90;;;;;;5033778;28;20571;-66
2024/04/08 00:58:57;;;;;;;1999.90;999.90;;;17.50;99.90;;;;;;5033218;28;20483;-66
2024/04/08 01:01:24;;;;;;;1999.90;999.90;;;17.50;99.90;;;;;;5033302;28;20057;-66
2024/04/08 01:03:53;;;;;;;1999.90;999.90;;;17.40;99.90;;;;;;5034094;28;20030;-66
2024/04/08 01:06:19;;;;;;;1999.90;999.90;;;17.30;99.90;;;;;;5033996;28;20090;-66
2024/04/08 01:08:44;;;;;;;1999.90;999.90;;;17.30;99.90;;;;;;5033239;28;20041;-66
2024/04/08 01:11:11;;;;;;;1999.90;999.90;;;17.30;99.90;;;;;;5034095;28;20029;-66
2024/04/08 01:13:37;;;;;;;1999.90;999.90;;;17.20;99.90;;;;;;5033789;28;20037;-70
2024/04/08 01:16:03;;;;;;;1999.90;999.90;;;17.20;99.90;;;;;;5033894;28;20555;-70
2024/04/08 01:18:29;;;;;;;1999.90;999.90;;;17.10;99.90;;;;;;5033372;28;20046;-70
2024/04/08 01:20:55;;;;;;;1999.90;999.90;;;17.10;99.90;;;;;;5033459;28;20496;-70
2024/04/08 01:23:21;;;;;;;1999.90;999.90;;;17.20;99.90;;;;;;5033278;28;20084;-70
2024/04/08 01:25:47;;;;;;;1999.90;999.90;;;17.30;99.90;;;;;;5033279;28;20554;-66
2024/04/08 01:28:13;;;;;;;1999.90;999.90;;;17.30;99.90;;;;;;5033646;28;20029;-66
2024/04/08 01:30:39;;;;;;;1999.90;999.90;;;17.30;99.90;;;;;;5033531;28;20053;-66
2024/04/08 01:33:05;;;;;;;1999.90;999.90;;;17.30;99.90;;;;;;5033569;28;20483;-70
2024/04/08 01:35:30;;;;;;;1999.90;999.90;;;17.30;99.90;;;;;;5033239;28;20436;-66
2024/04/08 01:37:56;;;;;;;1999.90;999.90;;;17.40;99.90;;;;;;5032475;28;20021;-66
2024/04/08 01:40:21;;;;;;;1999.90;999.90;;;17.50;99.90;;;;;;5033279;28;20026;-66
2024/04/08 01:42:47;;;;;;;1999.90;999.90;;;17.50;99.90;;;;;;5033159;28;20080;-70
2024/04/08 01:45:13;;;;;;;1999.90;999.90;;;17.60;99.90;;;;;;5033496;28;20384;-66
2024/04/08 01:47:38;;;;;;;1999.90;999.90;;;17.70;99.90;;;;;;5033242;28;20025;-66
2024/04/08 01:50:05;;;;;;;1999.90;999.90;;;17.70;99.90;;;;;;5033405;28;20025;-70
2024/04/08 01:52:31;;;;;;;1999.90;999.90;;;17.80;99.90;;;;;;5032895;28;20033;-66
2024/04/08 01:54:56;;;;;;;1999.90;999.90;;;17.80;99.90;;;;;;5032856;28;20075;-70
2024/04/08 01:57:22;;;;;;;1999.90;999.90;;;17.80;99.90;;;;;;5033027;28;20400;-69
2024/04/08 01:59:47;;;;;;;1999.90;999.90;;;17.80;99.90;;;;;;5033195;28;20021;-66
2024/04/08 02:02:13;;;;;;;1999.90;999.90;;;17.90;99.90;;;;;;5033012;28;20072;-66
2024/04/08 02:04:39;;;;;;;1999.90;999.90;;;17.90;99.90;;;;;;5033021;28;20104;-70
2024/04/08 02:07:04;;;;;;;1999.90;999.90;;;17.90;99.90;;;;;;5032763;28;20079;-71
2024/04/08 02:09:30;;;;;;;1999.90;999.90;;;17.90;99.90;;;;;;5032597;28;20028;-66
2024/04/08 02:11:56;;;;;;;1999.90;999.90;;;18.00;99.90;;;;;;5032652;28;20056;-66
2024/04/08 02:14:21;;;;;;;1999.90;999.90;;;18.00;99.90;;;;;;5032465;28;20025;-66
2024/04/08 02:16:47;;;;;;;1999.90;999.90;;;18.00;99.90;;;;;;5032213;28;20116;-66
2024/04/08 02:19:13;;;;;;;1999.90;999.90;;;18.00;99.90;;;;;;5032746;28;20038;-66
2024/04/08 02:21:38;;;;;;;1999.90;999.90;;;18.00;99.90;;;;;;5032379;28;20071;-66
2024/04/08 02:24:04;;;;;;;1999.90;999.90;;;18.10;99.90;;;;;;5032685;28;20025;-70
2024/04/08 02:26:30;;;;;;;1999.90;999.90;;;18.10;99.90;;;;;;5032745;28;20033;-66
2024/04/08 02:28:58;;;;;;;1999.90;999.90;;;18.10;99.90;;;;;;5032506;28;20507;-70
2024/04/08 02:31:24;;;;;;;1999.90;999.90;;;18.10;99.90;;;;;;5032849;28;20564;-66
2024/04/08 02:33:49;;;;;;;1999.90;999.90;;;18.10;99.90;;;;;;5032589;28;20067;-70
2024/04/08 02:36:15;;;;;;;1999.90;999.90;;;18.10;99.90;;;;;;5032928;28;20039;-70
2024/04/08 02:38:41;;;;;;;1999.90;999.90;;;18.20;99.90;;;;;;5032344;28;20392;-70
2024/04/08 02:41:06;;;;;;;1999.90;999.90;;;18.30;99.90;;;;;;5032405;28;20026;-66
2024/04/08 02:43:32;;;;;;;1999.90;999.90;;;18.30;99.90;;;;;;5032620;28;20443;-66
2024/04/08 02:45:58;;;;;;;1999.90;999.90;;;18.40;99.90;;;;;;5032310;28;20108;-66
2024/04/08 02:48:24;;;;;;;1999.90;999.90;;;18.40;99.90;;;;;;5032622;28;20105;-66
2024/04/08 02:50:51;;;;;;;1999.90;999.90;;;18.50;99.90;;;;;;5036081;28;20108;-70
2024/04/08 02:53:19;;;;;;;1999.90;999.90;;;18.50;99.90;;;;;;5036663;28;20037;-66
2024/04/08 02:55:45;;;;;;;1999.90;999.90;;;18.60;99.90;;;;;;5036125;28;20026;-66
2024/04/08 02:58:11;;;;;;;1999.90;999.90;;;18.60;99.90;;;;;;5036099;28;20112;-66
2024/04/08 03:00:38;;;;;;;1999.90;999.90;;;18.60;99.90;;;;;;5036399;28;20552;-70
2024/04/08 03:03:04;;;;;;;1999.90;999.90;;;18.70;99.90;;;;;;5036370;28;20026;-66
2024/04/08 03:05:30;;;;;;;1999.90;999.90;;;18.70;99.90;;;;;;5035752;28;20025;-66
2024/04/08 03:07:56;;;;;;;1999.90;999.90;;;18.70;99.90;;;;;;5035882;28;20038;-66
2024/04/08 03:10:22;;;;;;;1999.90;999.90;;;18.70;99.90;;;;;;5036074;28;20030;-66
2024/04/08 03:12:48;;;;;;;1999.90;999.90;;;18.80;99.90;;;;;;5035985;28;20035;-66
2024/04/08 03:15:14;;;;;;;1999.90;999.90;;;18.80;99.90;;;;;;5036311;28;20107;-66
2024/04/08 03:17:40;;;;;;;1999.90;999.90;;;18.90;99.90;;;;;;5036131;28;20033;-69
2024/04/08 03:20:06;;;;;;;1999.90;999.90;;;18.90;99.90;;;;;;5035552;28;20143;-66
2024/04/08 03:22:32;;;;;;;1999.90;999.90;;;19.00;99.90;;;;;;5035787;28;20392;-66
2024/04/08 03:24:57;;;;;;;1999.90;999.90;;;19.00;99.90;;;;;;5035599;28;20037;-70
2024/04/08 03:28:27;;;;;;;1999.90;999.90;;;19.00;99.90;;;;;;5546012;25;20407;-70
2024/04/08 03:30:53;;;;;;;1999.90;999.90;;;19.10;99.90;;;;;;5508976;26;20429;-66
2024/04/08 03:33:26;;;;;;;1999.90;999.90;;;19.10;99.90;;;;;;5508781;26;20006;-66
2024/04/08 03:35:52;;;;;;;;;;;19.00;99.90;;;;;;5508028;26;20338;-66
2024/04/08 03:38:18;;;;;;;1999.90;999.90;;;19.00;99.90;;;;;;5509569;26;19935;-66
2024/04/08 03:40:44;;;;;;;1999.90;999.90;;;19.00;99.90;;;;;;5508708;26;20030;-66
2024/04/08 03:43:10;;;;;;;1999.90;999.90;;;19.00;99.90;;;;;;5509166;26;20001;-69
2024/04/08 03:45:37;;;;;;;1999.90;999.90;;;19.00;99.90;;;;;;5509161;26;19997;-66
2024/04/08 03:48:03;;;;;;;1999.90;999.90;;;19.00;99.90;;;;;;5509079;26;19998;-70
2024/04/08 03:50:30;;;;;;;1999.90;999.90;;;19.00;99.90;;;;;;5508814;26;20310;-69
2024/04/08 03:52:56;;;;;;;1999.90;999.90;;;19.00;99.90;;;;;;5508848;26;20074;-66
2024/04/08 03:55:26;;;;;;;1999.90;999.90;;;19.00;99.90;;;;;;5509136;26;20018;-70
2024/04/08 03:57:52;;;;;;;1999.90;999.90;;;19.00;99.90;;;;;;5508951;26;20474;-69
2024/04/08 04:00:18;;;;;;;1999.90;999.90;;;18.90;99.90;;;;;;5507592;26;19998;-70
2024/04/08 04:02:44;;;;;;;1999.90;999.90;;;18.90;99.90;;;;;;5508847;26;20051;-66
2024/04/08 04:05:09;;;;;;;1999.90;999.90;;;18.90;99.90;;;;;;5508866;26;20074;-66
2024/04/08 04:07:35;;;;;;;1999.90;999.90;;;18.90;99.90;;;;;;5508413;26;19997;-70
2024/04/08 04:10:04;;;;;;;1999.90;999.90;;;18.80;99.90;;;;;;5508623;26;20004;-66
2024/04/08 04:12:38;;;;;;;1999.90;999.90;;;18.80;99.90;;;;;;5508539;26;19998;-66
2024/04/08 04:15:09;;;;;;;1999.90;999.90;;;18.80;99.90;;;;;;5508578;26;19989;-66
2024/04/08 04:17:35;;;;;;;1999.90;999.90;;;18.80;99.90;;;;;;5508686;26;20041;-70
2024/04/08 04:20:03;;;;;;;1999.90;999.90;;;18.80;99.90;;;;;;5508693;26;20010;-70
2024/04/08 04:22:29;;;;;;;1999.90;999.90;;;18.80;99.90;;;;;;5508013;26;19994;-66
2024/04/08 04:24:55;;;;;;;1999.90;999.90;;;18.90;99.90;;;;;;5507849;26;20493;-69
2024/04/08 04:27:20;;;;;;;1999.90;999.90;;;18.80;99.90;;;;;;5508163;26;19990;-66
2024/04/08 04:29:46;;;;;;;1999.90;999.90;;;18.80;99.90;;;;;;5508428;26;20017;-66
2024/04/08 04:32:12;;;;;;;1999.90;999.90;;;18.80;99.90;;;;;;5522676;25;19993;-66
2024/04/08 04:34:37;;;;;;;1999.90;999.90;;;18.70;99.90;;;;;;5545316;25;20332;-70
2024/04/08 04:37:03;;;;;;;1999.90;999.90;;;18.80;99.90;;;;;;5545159;25;19989;-66
2024/04/08 04:39:29;;;;;;;1999.90;999.90;;;18.80;99.90;;;;;;5530407;25;19993;-69
2024/04/08 04:41:55;;;;;;;1999.90;999.90;;;18.80;99.90;;;;;;5529504;26;20483;-66
2024/04/08 04:44:21;;;;;;;1999.90;999.90;;;18.80;99.90;;;;;;5529568;26;20066;-69
2024/04/08 04:46:48;;;;;;;1999.90;999.90;;;18.70;99.90;;;;;;5528994;26;20383;-66
2024/04/08 04:49:14;;;;;;;1999.90;999.90;;;18.70;99.90;;;;;;5529341;26;19993;-70
2024/04/08 04:51:39;;;;;;;1999.90;999.90;;;18.70;99.90;;;;;;5529624;26;20004;-66
2024/04/08 04:54:05;;;;;;;1999.90;999.90;;;18.70;99.90;;;;;;5529050;26;19997;-66
2024/04/08 04:56:31;;;;;;;1999.90;999.90;;;18.70;99.90;;;;;;5499701;26;20459;-67
2024/04/08 04:58:57;;;;;;;1999.90;999.90;;;18.70;99.90;;;;;;5491858;26;20023;-66
2024/04/08 05:01:22;;;;;;;1999.90;999.90;;;18.60;99.90;;;;;;5491194;26;19999;-70
2024/04/08 05:03:48;;;;;;;1999.90;999.90;;;18.60;99.90;;;;;;5503489;26;19994;-66
2024/04/08 05:06:16;;;;;;;1999.90;999.90;;;18.60;99.90;;;;;;5491706;26;20021;-66
2024/04/08 05:08:42;;;;;;;1999.90;999.90;;;18.60;99.90;;;;;;5491305;26;20418;-70
2024/04/08 05:11:08;;;;;;;1999.90;999.90;;;18.70;99.90;;;;;;5491904;26;20043;-70
2024/04/08 05:13:33;;;;;;;1999.90;999.90;;;18.70;99.90;;;;;;5491767;26;20340;-66
2024/04/08 05:16:03;;;;;;;1999.90;999.90;;;18.70;99.90;;;;;;5491830;26;20013;-66
2024/04/08 05:18:30;;;;;;;1999.90;999.90;;;18.70;99.90;;;;;;5491593;26;20002;-67
2024/04/08 05:20:57;;;;;;;1999.90;999.90;;;18.70;99.90;;;;;;5491869;26;20002;-66
2024/04/08 05:23:25;;;;;;;1999.90;999.90;;;18.70;99.90;;;;;;5491747;26;20005;-69
2024/04/08 05:25:51;;;;;;;1999.90;999.90;;;18.70;99.90;;;;;;5491374;26;20394;-66
2024/04/08 05:28:17;;;;;;;1999.90;999.90;;;18.60;99.90;;;;;;5490934;26;20459;-66
2024/04/08 05:30:43;;;;;;;1999.90;999.90;;;18.70;99.90;;;;;;5491374;26;20026;-66
2024/04/08 05:33:09;;;;;;;1999.90;999.90;;;18.70;99.90;;;;;;5511958;26;20013;-66
2024/04/08 05:35:36;;;;;;;1999.90;999.90;;;18.70;99.90;;;;;;5485517;26;19998;-66
2024/04/08 05:38:02;;;;;;;1999.90;999.90;;;18.70;99.90;;;;;;5471127;26;20010;-67
2024/04/08 05:40:27;;;;;;;1999.90;999.90;;;18.80;99.90;;;;;;5469590;26;20001;-66
2024/04/08 05:42:53;;;;;;;1999.90;999.90;;;18.80;99.90;;;;;;5489599;26;20010;-66
2024/04/08 05:45:21;;;;;;;1999.90;999.90;;;18.80;99.90;;;;;;5478518;26;20443;-66
2024/04/08 05:47:53;;;;;;;1999.90;999.90;;;18.80;99.90;;;;;;5490395;26;20009;-66
2024/04/08 05:50:20;;;;;;;1999.90;999.90;;;18.80;99.90;;;;;;5483904;26;20345;-70
2024/04/08 05:52:45;;;;;;;1999.90;999.90;;;18.80;99.90;;;;;;5487695;26;20227;-66
2024/04/08 05:55:11;;;;;;;1999.90;999.90;;;18.90;99.90;;;;;;5490507;26;20127;-66
2024/04/08 05:57:36;;;;;;;1999.90;999.90;;;18.90;99.90;;;;;;5489051;26;20437;-66
2024/04/08 06:00:02;;;;;;;1999.90;999.90;;;19.00;99.90;;;;;;5488703;26;20009;-70
2024/04/08 06:02:28;;;;;;;1999.90;999.90;;;19.00;99.90;;;;;;5488891;26;20394;-70
2024/04/08 06:04:53;;;;;;;1999.90;999.90;;;19.10;99.90;;;;;;5457186;26;20006;-70
2024/04/08 06:07:19;;;;;;;1999.90;999.90;;;19.20;99.90;;;;;;5489511;26;19998;-66
2024/04/08 06:09:45;;;;;;;1999.90;999.90;;;19.30;99.90;;;;;;5490387;26;20456;-66
2024/04/08 06:12:10;;;;;;;1999.90;999.90;;;19.40;99.90;;;;;;5489577;26;20341;-66
2024/04/08 06:14:36;;;;;;;1999.90;999.90;;;19.40;99.90;;;;;;5457601;26;20031;-70
2024/04/08 06:17:02;;;;;;;1999.90;999.90;;;19.50;99.90;;;;;;5489510;26;20004;-70
2024/04/08 06:19:28;;;;;;;1999.90;999.90;;;19.60;99.90;;;;;;5502139;26;20352;-71
2024/04/08 06:21:53;;;;;;;1999.90;999.90;;;19.70;99.90;;;;;;5490005;26;20013;-67
2024/04/08 06:24:20;;;;;;;1999.90;999.90;;;19.80;99.90;;;;;;5489971;26;20009;-66
2024/04/08 06:26:46;;;;;;;1999.90;999.90;;;19.80;99.90;;;;;;5489701;26;20032;-66
2024/04/08 06:29:12;;;;;;;1999.90;999.90;;;19.80;99.90;;;;;;5485914;26;20453;-66
2024/04/08 06:31:37;;;;;;;1999.90;999.90;;;19.90;99.90;;;;;;5488117;26;19998;-70
2024/04/08 06:34:03;;;;;;;1999.90;999.90;;;19.90;99.90;;;;;;5489103;26;20445;-66
2024/04/08 06:36:32;;;;;;;1999.90;999.90;;;19.90;99.90;;;;;;5489175;26;20009;-66
2024/04/08 06:38:57;;;;;;;1999.90;999.90;;;19.70;99.90;;;;;;5478996;26;20035;-66
2024/04/08 06:41:23;;;;;;;1999.90;999.90;;;19.60;99.90;;;;;;5490078;26;20409;-69
2024/04/08 06:43:48;;;;;;;1999.90;999.90;;;19.50;99.90;;;;;;5487984;26;20009;-70
2024/04/08 06:46:14;;;;;;;1999.90;999.90;;;19.40;99.90;;;;;;5487647;26;20065;-66
2024/04/08 06:48:40;;;;;;;1999.90;999.90;;;19.50;99.90;;;;;;5487956;26;20391;-66
2024/04/08 06:51:05;;;;;;;1999.90;999.90;;;19.40;99.90;;;;;;5488435;26;20026;-66
2024/04/08 06:53:31;;;;;;;1999.90;999.90;;;19.40;99.90;;;;;;5487908;26;19997;-66
2024/04/08 06:55:57;;;;;;;1999.90;999.90;;;19.50;99.90;;;;;;5488600;26;20066;-70
2024/04/08 06:58:23;;;;;;;1999.90;999.90;;;19.60;99.90;;;;;;5461027;26;19994;-70
2024/04/08 07:00:50;;;;;;;1999.90;999.90;;;19.60;99.90;;;;;;5483103;26;20005;-66
2024/04/08 07:03:16;;;;;;;1999.90;999.90;;;19.70;99.90;;;;;;5486618;26;20008;-66
2024/04/08 07:05:43;;;;;;;1999.90;999.90;;;19.60;99.90;;;;;;5487729;26;20456;-72
2024/04/08 07:08:09;;;;;;;1999.90;999.90;;;19.70;99.90;;;;;;5487733;26;20006;-73
2024/04/08 07:10:35;;;;;;;1999.90;999.90;;;19.50;99.90;;;;;;5491805;26;20330;-73
2024/04/08 07:13:01;;;;;;;1999.90;999.90;;;19.40;99.90;;;;;;5492249;26;20347;-70
2024/04/08 07:15:27;;;;;;;1999.90;999.90;;;19.30;99.90;;;;;;5486519;26;20002;-73
2024/04/08 07:17:53;;;;;;;1999.90;999.90;;;19.20;99.90;;;;;;5486828;26;20002;-68
2024/04/08 07:20:19;;;;;;;1999.90;999.90;;;19.00;99.90;;;;;;5471755;26;19998;-69
2024/04/08 07:22:45;;;;;;;1999.90;999.90;;;18.80;99.90;;;;;;5479687;26;20026;-70
2024/04/08 07:25:11;;;;;;;1999.90;999.90;;;18.90;99.90;;;;;;5480544;26;20018;-72
2024/04/08 07:27:37;;;;;;;1999.90;999.90;;;18.90;99.90;;;;;;5484106;26;20560;-72
2024/04/08 07:30:03;;;;;;;1999.90;999.90;;;18.80;99.90;;;;;;5481786;26;20059;-68
2024/04/08 07:32:30;;;;;;;1999.90;999.90;;;18.70;99.90;;;;;;5484478;26;19998;-69
2024/04/08 07:34:56;;;;;;;1999.90;999.90;;;18.80;99.90;;;;;;5484836;26;20014;-72
2024/04/08 07:37:22;;;;;;;1999.90;999.90;;;18.80;99.90;;;;;;5483649;26;20468;-72
2024/04/08 07:39:49;;;;;;;1999.90;999.90;;;18.80;99.90;;;;;;5485931;26;20049;-69
2024/04/08 07:42:15;;;;;;;1999.90;999.90;;;18.80;99.90;;;;;;5484711;26;20017;-72
2024/04/08 07:44:40;;;;;;;1999.90;999.90;;;18.80;99.90;;;;;;5485136;26;19990;-72
2024/04/08 07:47:06;;;;;;;1999.90;999.90;;;18.90;99.90;;;;;;5484837;26;19998;-70
2024/04/08 07:49:31;;;;;;;1999.90;999.90;;;18.70;99.90;;;;;;5484732;26;20002;-68
2024/04/08 07:51:57;;;;;;;1999.90;999.90;;;18.50;99.90;;;;;;5484776;26;19994;-70
2024/04/08 07:54:23;;;;;;;1999.90;999.90;;;18.60;99.90;;;;;;5483218;26;19998;-69
2024/04/08 07:56:48;;;;;;;1999.90;999.90;;;18.80;99.90;;;;;;5480498;26;20530;-68
2024/04/08 07:59:14;;;;;;;1999.90;999.90;;;20.40;99.90;;;;;;5485034;26;19994;-68
2024/04/08 08:01:40;;;;;;;1999.90;999.90;;;20.50;99.90;;;;;;5476489;26;20013;-69
2024/04/08 08:04:05;;;;;;;1999.90;999.90;;;20.70;99.90;;;;;;5484317;26;20002;-70
2024/04/08 08:06:31;;;;;;;1999.90;999.90;;;20.60;99.90;;;;;;5484585;26;20022;-65
2024/04/08 08:08:57;;;;;;;1999.90;999.90;;;20.20;99.90;;;;;;5438741;26;20446;-65
2024/04/08 08:11:22;;;;;;;1999.90;999.90;;;21.30;99.90;;;;;;5471511;26;20002;-65
2024/04/08 08:13:48;;;;;;;1999.90;999.90;;;21.40;99.90;;;;;;5486306;26;20387;-70
2024/04/08 08:16:14;;;;;;;1999.90;999.90;;;21.90;99.90;;;;;;5488023;26;20025;-71
2024/04/08 08:18:39;;;;;;;1999.90;999.90;;;22.20;99.90;;;;;;5488764;26;20006;-71
2024/04/08 08:21:06;;;;;;;1999.90;999.90;;;21.90;99.90;;;;;;5489267;26;20042;-71
2024/04/08 08:23:31;;;;;;;1999.90;999.90;;;21.50;99.90;;;;;;5486709;26;20034;-65
2024/04/08 08:25:58;;;;;;;1999.90;999.90;;;20.60;99.90;;;;;;5486099;26;20009;-66
2024/04/08 08:28:24;;;;;;;1999.90;999.90;;;19.10;99.90;;;;;;5487035;26;19998;-68
2024/04/08 08:30:50;;;;;;;1999.90;999.90;;;19.00;99.90;;;;;;5469256;26;20117;-65
2024/04/08 08:33:16;;;;;;;1999.90;999.90;;;19.50;99.90;;;;;;5483021;26;20005;-67
2024/04/08 08:35:42;;;;;;;1999.90;999.90;;;20.10;99.90;;;;;;5483282;26;19998;-66
2024/04/08 08:38:07;;;;;;;1999.90;999.90;;;20.00;99.90;;;;;;5483479;26;19998;-70
2024/04/08 08:40:54;;;;;;;1999.90;999.90;;;19.90;99.90;;;;;;5482271;26;20833;-70
2024/04/08 08:43:29;;;;;;;1999.90;999.90;;;20.30;99.90;;;;;;5486676;26;20016;-70
2024/04/08 08:45:54;;;;;;;1999.90;999.90;;;20.40;99.90;;;;;;5487606;26;20054;-65
2024/04/08 08:48:21;;;;;;;1999.90;999.90;;;20.40;99.90;;;;;;5487351;26;20002;-64
2024/04/08 08:50:48;;;;;;;1999.90;999.90;;;20.90;99.90;;;;;;5487902;26;20311;-64
2024/04/08 08:53:14;;;;;;;1999.90;999.90;;;19.90;99.90;;;;;;5487289;26;20002;-65
2024/04/08 08:55:40;;;;;;;1999.90;999.90;;;20.30;99.90;;;;;;5487792;26;20014;-71
2024/04/08 08:58:08;;;;;;;1999.90;999.90;;;20.50;99.90;;;;;;5485908;26;20075;-65
2024/04/08 09:00:40;;;;;;;1999.90;999.90;;;20.40;99.90;;;;;;5492678;26;20415;-66
2024/04/08 09:03:16;;;;;;;1999.90;999.90;;;20.30;99.90;;;;;;5483622;26;20008;-67
2024/04/08 09:05:42;;;;;;;1999.90;999.90;;;19.60;99.90;;;;;;5492706;26;20074;-68
2024/04/08 09:08:07;;;;;;;1999.90;999.90;;;19.80;99.90;;;;;;5486274;26;20579;-70
2024/04/08 09:11:04;;;;;;;1999.90;999.90;;;20.10;99.90;;;;;;5488135;26;19994;-69
2024/04/08 09:13:32;;;;;;;1999.90;999.90;;;20.90;99.90;;;;;;5482790;26;20010;-71
2024/04/08 09:15:57;;;;;;;1999.90;999.90;;;23.00;99.90;;;;;;5487492;26;19998;-65
2024/04/08 09:18:23;;;;;;;1999.90;999.90;;;23.90;99.90;;;;;;5486628;26;20333;-70
2024/04/08 09:20:49;;;;;;;1999.90;999.90;;;25.10;99.90;;;;;;5488328;26;20018;-64
2024/04/08 09:23:15;;;;;;;1999.90;999.90;;;23.90;99.90;;;;;;5492342;26;19998;-67
2024/04/08 09:25:40;;;;;;;1999.90;999.90;;;24.70;99.90;;;;;;5486842;26;19994;-65
2024/04/08 09:28:09;;;;;;;1999.90;999.90;;;24.50;99.90;;;;;;5487213;26;19998;-69
2024/04/08 09:30:35;;;;;;;1999.90;999.90;;;23.60;99.90;;;;;;5487264;26;20009;-68
2024/04/08 09:33:02;;;;;;;1999.90;999.90;;;22.10;99.90;;;;;;5487579;26;20006;-70
2024/04/08 09:35:28;;;;;;;1999.90;999.90;;;21.70;99.90;;;;;;5487462;26;20465;-70
2024/04/08 09:37:55;;;;;;;1999.90;999.90;;;21.50;99.90;;;;;;5485978;26;20002;-66
2024/04/08 09:40:25;;;;;;;1999.90;999.90;;;21.00;99.90;;;;;;5487484;26;20444;-66
2024/04/08 09:42:51;;;;;;;1999.90;999.90;;;20.20;99.90;;;;;;5487475;26;19998;-71
2024/04/08 09:45:19;;;;;;;1999.90;999.90;;;19.70;99.90;;;;;;5488098;26;20009;-68
2024/04/08 09:47:45;;;;;;;1999.90;999.90;;;19.30;99.90;;;;;;5480905;26;20002;-68
2024/04/08 09:50:12;;;;;;;1999.90;999.90;;;20.10;99.90;;;;;;5487525;26;20009;-72
2024/04/08 09:52:39;;;;;;;1999.90;999.90;;;20.00;99.90;;;;;;5487106;26;20009;-65
2024/04/08 09:55:07;;;;;;;1999.90;999.90;;;19.50;99.90;;;;;;5487821;26;20021;-71
2024/04/08 09:57:39;;;;;;;1999.90;999.90;;;19.40;99.90;;;;;;5486120;26;20342;-71
2024/04/08 10:00:12;;;;;;;1999.90;999.90;;;19.90;99.90;;;;;;5485886;26;20318;-66
2024/04/08 10:02:41;;;;;;;1999.90;999.90;;;20.30;99.90;;;;;;5486390;26;20231;-72
2024/04/08 10:05:07;;;;;;;1999.90;999.90;;;20.20;99.90;;;;;;5483937;26;20005;-71
2024/04/08 10:07:33;;;;;;;1999.90;999.90;;;20.00;99.90;;;;;;5485557;26;20002;-73
2024/04/08 10:10:09;;;;;;;1999.90;999.90;;;21.20;99.90;;;;;;5503217;26;20002;-75
2024/04/08 10:12:36;;;;;;;1999.90;999.90;;;21.60;99.90;;;;;;5483013;26;20434;-72
2024/04/08 10:15:11;;;;;;;1999.90;999.90;;;20.90;99.90;;;;;;5486729;26;20034;-75
2024/04/08 10:17:43;;;;;;;1999.90;999.90;;;19.70;99.90;;;;;;5485003;26;20005;-69
2024/04/08 10:20:17;;;;;;;1999.90;999.90;;;19.20;99.90;;;;;;5486784;26;20009;-69
2024/04/08 10:22:43;;;;;;;1999.90;999.90;;;18.60;99.90;;;;;;5486744;26;20346;-75
2024/04/08 10:25:35;;;;;;;1999.90;999.90;;;18.60;99.90;;;;;;5486950;26;19997;-76
2024/04/08 10:28:14;;;;;;;1999.90;999.90;;;18.60;99.90;;;;;;5486006;26;20070;-76
2024/04/08 10:30:41;;;;;;;1999.90;999.90;;;19.00;99.90;;;;;;5484380;26;20026;-73
2024/04/08 10:33:08;;;;;;;1999.90;999.90;;;19.70;99.90;;;;;;5480215;26;20350;-72
2024/04/08 10:35:33;;;;;;;1999.90;999.90;;;20.30;99.90;;;;;;5487040;26;20010;-73
2024/04/08 10:37:59;;;;;;;1999.90;999.90;;;20.60;99.90;;;;;;5486267;26;20021;-73
2024/04/08 10:40:25;;;;;;;1999.90;999.90;;;20.10;99.90;;;;;;5487872;26;20433;-74
2024/04/08 10:42:51;;;;;;;1999.90;999.90;;;19.70;99.90;;;;;;5485447;26;19994;-66
2024/04/08 10:45:20;;;;;;;1999.90;999.90;;;19.60;99.90;;;;;;5486359;26;20038;-66
2024/04/08 10:47:54;;;;;;;1999.90;999.90;;;19.20;99.90;;;;;;5485950;26;20827;-66
2024/04/08 10:50:20;;;;;;;1999.90;999.90;;;19.70;99.90;;;;;;5485222;26;20399;-71
2024/04/08 10:52:45;;;;;;;1999.90;999.90;;;20.00;99.90;;;;;;5486632;26;19998;-68
2024/04/08 10:55:11;;;;;;;1999.90;999.90;;;20.00;99.90;;;;;;5485791;26;20031;-74
2024/04/08 10:57:37;;;;;;;1999.90;999.90;;;19.20;99.90;;;;;;5484206;26;20374;-66
2024/04/08 11:00:07;;;;;;;1999.90;999.90;;;19.00;99.90;;;;;;5484722;26;20009;-65
2024/04/08 11:02:32;;;;;;;1999.90;999.90;;;19.30;99.90;;;;;;5485943;26;20087;-74
2024/04/08 11:05:02;;;;;;;1999.90;999.90;;;19.40;99.90;;;;;;5485498;26;20010;-66
2024/04/08 11:07:35;;;;;;;1999.90;999.90;;;19.30;99.90;;;;;;5484041;26;19998;-72
2024/04/08 11:10:20;;;;;;;1999.90;999.90;;;19.10;99.90;;;;;;5480150;26;20018;-73
2024/04/08 11:12:47;;;;;;;1999.90;999.90;;;18.90;99.90;;;;;;5479116;26;20002;-73
2024/04/08 11:15:13;;;;;;;1999.90;999.90;;;18.50;99.90;;;;;;5485631;26;20010;-73
2024/04/08 11:17:40;;;;;;;1999.90;999.90;;;18.50;99.90;;;;;;5484266;26;20456;-66
2024/04/08 11:20:06;;;;;;;1999.90;999.90;;;18.10;99.90;;;;;;5485404;26;20038;-67
2024/04/08 11:22:33;;;;;;;1999.90;999.90;;;18.40;99.90;;;;;;5484641;26;20006;-66
2024/04/08 11:24:59;;;;;;;1999.90;999.90;;;18.90;99.90;;;;;;5485886;26;19994;-67
2024/04/08 11:27:28;;;;;;;1999.90;999.90;;;19.10;99.90;;;;;;5485724;26;20066;-66
2024/04/08 11:29:54;;;;;;;1999.90;999.90;;;19.30;99.90;;;;;;5480869;26;20333;-73
2024/04/08 11:32:21;;;;;;;1999.90;999.90;;;19.50;99.90;;;;;;5484300;26;20026;-66
2024/04/08 11:34:47;;;;;;;1999.90;999.90;;;19.80;99.90;;;;;;5485827;26;20012;-66
2024/04/08 11:37:13;;;;;;;1999.90;999.90;;;20.00;99.90;;;;;;5485699;26;19998;-67
2024/04/08 11:39:40;;;;;;;1999.90;999.90;;;19.70;99.90;;;;;;5483169;26;20091;-67
2024/04/08 11:42:07;;;;;;;1999.90;999.90;;;19.50;99.90;;;;;;5484702;26;20070;-71
2024/04/08 11:44:33;;;;;;;1999.90;999.90;;;18.80;99.90;;;;;;5484102;26;19998;-73
2024/04/08 11:46:59;;;;;;;1999.90;999.90;;;19.20;99.90;;;;;;5485624;26;20502;-66
2024/04/08 11:49:25;;;;;;;1999.90;999.90;;;19.10;99.90;;;;;;5488822;26;20006;-70
2024/04/08 11:51:51;;;;;;;1999.90;999.90;;;19.00;99.90;;;;;;5486985;26;21074;-65
2024/04/08 11:54:18;;;;;;;1999.90;999.90;;;19.10;99.90;;;;;;5488824;26;20099;-74
2024/04/08 11:56:44;;;;;;;1999.90;999.90;;;19.20;99.90;;;;;;5489086;26;20014;-72